Terminal Aerodrome Forecast
Issued by NWS Cleveland, OH

Home | Current Version | Previous Version | Graphics & Text | Print | Product List | Glossary On
Versions: 1 2 3 4 5 6 7 8 9 10 11 12 13 14 15 16 17 18 19
000
FTUS41 KCLE 261100 RRA
TAFCAK
TAF
KCAK 261142Z 2612/2712 20008KT P6SM BKN035 OVC050
     FM261700 20012KT P6SM VCSH BKN035
     FM262000 20015G22KT P6SM BKN050
     FM270000 19010KT P6SM -SHRA BKN050 OVC150
     FM270400 20012KT P6SM SCT040 BKN200
     FM271000 20010KT P6SM BKN010 OVC200=

USA.gov is the U.S. government's official web portal to all federal, state and local government web resources and services.